Time;durP1;ratioP1;P1;durP2;ratioP2;P2;SDS_P1;SDS_P2;PMS_P1;PMS_P2;Temp;Humidity;BMP_temperature;BMP_pressure;BME280_temperature;BME280_humidity;BME280_pressure;Samples;Min_cycle;Max_cycle;Signal;HPM_P1;HPM_P2
2022/05/04 00:01:20;;;;;;;31.95;20.17;;;22.70;45.60;;;;;;5031580;28;20029;-76
2022/05/04 00:03:46;;;;;;;35.38;20.67;;;22.80;45.70;;;;;;5029818;28;20029;-76
2022/05/04 00:06:12;;;;;;;31.48;19.55;;;22.70;45.70;;;;;;5031191;28;20109;-76
2022/05/04 00:08:38;;;;;;;31.85;19.98;;;22.70;45.70;;;;;;5031267;28;20034;-76
2022/05/04 00:11:04;;;;;;;33.20;20.00;;;22.70;45.80;;;;;;5031280;28;20052;-76
2022/05/04 00:13:31;;;;;;;33.38;19.77;;;22.70;45.80;;;;;;5030717;28;20470;-76
2022/05/04 00:15:57;;;;;;;32.22;19.77;;;22.70;45.90;;;;;;5029964;28;20409;-76
2022/05/04 00:18:23;;;;;;;31.98;19.83;;;22.70;45.90;;;;;;5030924;28;20029;-76
2022/05/04 00:20:49;;;;;;;30.95;19.25;;;22.70;45.90;;;;;;5031302;28;20393;-76
2022/05/04 00:23:14;;;;;;;30.10;19.08;;;22.70;46.00;;;;;;5029694;28;20045;-76
2022/05/04 00:25:41;;;;;;;31.10;18.33;;;22.70;46.00;;;;;;5030840;28;20029;-76
2022/05/04 00:28:06;;;;;;;30.10;18.17;;;22.70;46.10;;;;;;5030994;28;20033;-76
2022/05/04 00:30:32;;;;;;;32.08;18.77;;;22.70;46.10;;;;;;5029852;28;20048;-76
2022/05/04 00:32:59;;;;;;;30.27;18.40;;;22.70;46.10;;;;;;5031074;28;20026;-76
2022/05/04 00:35:25;;;;;;;30.77;18.05;;;22.70;46.10;;;;;;5034792;28;20040;-76
2022/05/04 00:37:51;;;;;;;30.38;17.90;;;22.70;46.10;;;;;;5035338;28;20482;-76
2022/05/04 00:40:17;;;;;;;29.13;17.45;;;22.70;46.20;;;;;;5034894;28;20056;-76
2022/05/04 00:42:42;;;;;;;30.95;18.15;;;22.70;46.20;;;;;;5035230;28;20103;-76
2022/05/04 00:45:09;;;;;;;28.33;17.55;;;22.70;46.20;;;;;;5034931;28;20109;-76
2022/05/04 00:47:34;;;;;;;28.15;16.75;;;22.70;46.20;;;;;;5035059;28;20091;-76
2022/05/04 00:50:06;;;;;;;28.05;17.33;;;22.70;46.30;;;;;;5034861;28;20428;-76
2022/05/04 00:52:37;;;;;;;28.73;17.25;;;22.70;46.30;;;;;;5034852;28;20026;-76
2022/05/04 00:55:06;;;;;;;28.63;17.05;;;22.70;46.20;;;;;;5034541;28;20022;-76
2022/05/04 01:00:19;;;;;;;30.00;16.98;;;22.70;46.20;;;;;;5034712;28;20035;-76
2022/05/04 01:02:45;;;;;;;27.63;16.33;;;22.70;46.30;;;;;;5034431;28;20033;-76
2022/05/04 01:05:12;;;;;;;29.60;17.08;;;22.70;46.30;;;;;;5034357;28;20029;-76
2022/05/04 01:07:43;;;;;;;29.27;18.50;;;22.70;46.30;;;;;;5034785;28;20030;-76
2022/05/04 01:10:11;;;;;;;27.30;16.45;;;22.70;46.30;;;;;;5033512;28;20021;-76
2022/05/04 01:12:48;;;;;;;26.88;16.90;;;22.70;46.30;;;;;;5033319;28;20033;-76
2022/05/04 01:15:15;;;;;;;25.50;16.10;;;22.70;46.30;;;;;;5033406;28;20036;-76
2022/05/04 01:17:41;;;;;;;26.02;15.80;;;22.70;46.30;;;;;;5034407;28;20474;-75
2022/05/04 01:20:08;;;;;;;27.02;16.52;;;22.70;46.30;;;;;;5033170;28;20037;-76
2022/05/04 01:22:37;;;;;;;26.60;15.27;;;22.70;46.40;;;;;;5016517;28;20029;-77
2022/05/04 01:25:03;;;;;;;25.57;15.83;;;22.70;46.40;;;;;;5034239;28;20025;-76
2022/05/04 01:27:29;;;;;;;25.38;15.32;;;22.70;46.50;;;;;;5034360;28;20291;-76
2022/05/04 01:29:54;;;;;;;24.33;14.77;;;22.70;46.40;;;;;;5034233;28;20044;-77
2022/05/04 01:32:20;;;;;;;26.45;14.88;;;22.70;46.50;;;;;;5033027;28;20033;-76
2022/05/04 01:34:46;;;;;;;26.60;15.82;;;22.70;46.50;;;;;;5034002;28;20022;-77
2022/05/04 01:37:11;;;;;;;25.25;14.68;;;22.70;46.50;;;;;;5016071;28;20371;-76
2022/05/04 01:39:37;;;;;;;23.27;14.57;;;22.70;46.70;;;;;;5034229;28;20057;-76
2022/05/04 01:42:03;;;;;;;25.63;15.35;;;22.70;46.60;;;;;;5033763;28;20026;-76
2022/05/04 01:44:33;;;;;;;24.05;15.02;;;22.70;46.60;;;;;;5033658;28;20022;-76
2022/05/04 01:46:59;;;;;;;24.25;15.23;;;22.70;46.60;;;;;;5033114;28;20037;-76
2022/05/04 01:49:25;;;;;;;24.20;15.20;;;22.70;46.60;;;;;;5033093;28;20045;-76
2022/05/04 01:51:51;;;;;;;25.02;14.85;;;22.70;46.70;;;;;;5034038;28;20540;-77
2022/05/04 01:54:17;;;;;;;23.33;14.32;;;22.70;46.70;;;;;;5032308;28;20052;-76
2022/05/04 01:56:42;;;;;;;25.27;14.60;;;22.70;46.70;;;;;;5032678;28;20398;-76
2022/05/04 01:59:08;;;;;;;23.17;14.13;;;22.70;46.80;;;;;;5033042;28;20029;-77
2022/05/04 02:01:40;;;;;;;24.80;15.05;;;22.70;46.70;;;;;;5033540;28;20072;-76
2022/05/04 02:04:06;;;;;;;24.30;15.00;;;22.70;46.80;;;;;;5033486;28;20095;-78
2022/05/04 02:06:32;;;;;;;23.83;14.35;;;22.70;46.70;;;;;;5033467;28;20056;-77
2022/05/04 02:08:58;;;;;;;24.30;14.38;;;22.70;46.70;;;;;;5015902;28;20561;-77
2022/05/04 02:11:25;;;;;;;22.45;13.93;;;22.70;46.70;;;;;;5033444;28;20109;-77
2022/05/04 02:13:51;;;;;;;24.73;14.10;;;22.70;46.70;;;;;;5032162;28;20528;-75
2022/05/04 02:16:16;;;;;;;24.67;14.20;;;22.70;46.70;;;;;;5032885;28;20036;-75
2022/05/04 02:18:43;;;;;;;22.42;14.32;;;22.70;46.90;;;;;;5033794;28;20030;-76
2022/05/04 02:21:09;;;;;;;22.58;13.63;;;22.70;46.80;;;;;;5033158;28;20115;-76
2022/05/04 02:23:35;;;;;;;22.13;14.18;;;22.70;46.80;;;;;;5031483;28;20052;-76
2022/05/04 02:26:01;;;;;;;21.70;13.60;;;22.70;46.90;;;;;;5033032;28;20026;-76
2022/05/04 02:28:27;;;;;;;21.52;13.35;;;22.70;46.80;;;;;;5033043;28;20501;-76
2022/05/04 02:30:52;;;;;;;21.83;13.43;;;22.70;47.00;;;;;;5031806;28;20501;-76
2022/05/04 02:33:18;;;;;;;21.63;12.45;;;22.70;46.80;;;;;;5031284;28;20021;-76
2022/05/04 02:38:28;;;;;;;23.00;13.82;;;22.70;46.90;;;;;;5032844;28;20095;-76
2022/05/04 02:40:54;;;;;;;23.58;13.50;;;22.70;46.80;;;;;;5032705;28;20033;-76
2022/05/04 02:43:19;;;;;;;21.67;12.95;;;22.70;46.80;;;;;;5029348;28;20397;-76
2022/05/04 02:45:45;;;;;;;23.70;13.55;;;22.70;46.80;;;;;;5031703;28;20559;-76
2022/05/04 02:48:11;;;;;;;20.00;12.02;;;22.70;46.80;;;;;;5032350;28;20025;-76
2022/05/04 02:50:37;;;;;;;20.95;12.25;;;22.70;46.80;;;;;;5032812;28;20022;-76
2022/05/04 02:53:04;;;;;;;19.85;12.15;;;22.70;46.90;;;;;;5032149;28;20029;-76
2022/05/04 02:55:31;;;;;;;21.73;13.30;;;22.70;46.90;;;;;;5032503;28;20025;-75
2022/05/04 02:57:56;;;;;;;20.40;12.27;;;22.70;46.80;;;;;;5032087;28;20425;-76
2022/05/04 03:00:22;;;;;;;21.38;13.00;;;22.70;46.80;;;;;;5032599;28;20029;-76
2022/05/04 03:02:48;;;;;;;21.20;13.00;;;22.70;46.90;;;;;;5031869;28;20072;-76
2022/05/04 03:05:16;;;;;;;21.33;13.32;;;22.70;46.90;;;;;;5032274;28;20022;-76
2022/05/04 03:07:41;;;;;;;21.40;13.15;;;22.70;46.90;;;;;;5031150;28;20545;-75
2022/05/04 03:10:08;;;;;;;21.50;12.70;;;22.70;46.80;;;;;;5032056;28;20109;-76
2022/05/04 03:12:34;;;;;;;21.27;12.70;;;22.70;46.90;;;;;;5031054;28;20037;-77
2022/05/04 03:15:00;;;;;;;19.90;12.55;;;22.70;46.90;;;;;;5032023;28;20407;-76
2022/05/04 03:17:26;;;;;;;19.95;12.35;;;22.70;47.00;;;;;;5032305;28;20037;-76
2022/05/04 03:19:52;;;;;;;20.42;11.98;;;22.70;47.00;;;;;;5032331;28;20036;-76
2022/05/04 03:22:18;;;;;;;20.42;12.15;;;22.70;47.10;;;;;;5032016;28;20021;-76
2022/05/04 03:24:44;;;;;;;19.77;12.57;;;22.70;47.20;;;;;;5030596;28;20025;-76
2022/05/04 03:27:10;;;;;;;21.73;12.05;;;22.70;47.70;;;;;;5032007;28;20022;-76
2022/05/04 03:29:35;;;;;;;22.10;12.95;;;22.70;47.10;;;;;;5031825;28;20025;-76
2022/05/04 03:32:03;;;;;;;21.98;12.25;;;22.70;47.30;;;;;;5031675;28;20496;-76
2022/05/04 03:34:29;;;;;;;21.35;12.15;;;22.70;47.30;;;;;;5031314;28;20030;-77
2022/05/04 03:36:55;;;;;;;19.67;12.13;;;22.70;47.50;;;;;;5030973;28;20029;-77
2022/05/04 03:39:21;;;;;;;20.60;11.38;;;22.70;47.30;;;;;;5031513;28;20505;-77
2022/05/04 03:41:46;;;;;;;21.40;12.20;;;22.70;47.20;;;;;;5031865;28;20368;-77
2022/05/04 03:44:12;;;;;;;20.23;11.70;;;22.70;47.20;;;;;;5031147;28;20117;-76
2022/05/04 03:46:46;;;;;;;20.50;12.38;;;22.70;47.30;;;;;;5031814;28;20079;-77
2022/05/04 03:49:12;;;;;;;19.90;11.85;;;22.70;47.30;;;;;;5031152;28;20021;-77
2022/05/04 03:51:39;;;;;;;18.58;11.88;;;22.70;47.30;;;;;;5031671;28;20028;-77
2022/05/04 03:54:04;;;;;;;18.40;11.38;;;22.70;47.30;;;;;;5031122;28;20063;-77
2022/05/04 03:56:30;;;;;;;19.25;11.57;;;22.70;47.30;;;;;;5031735;28;20029;-77
2022/05/04 03:58:56;;;;;;;18.60;11.27;;;22.70;47.30;;;;;;5031561;28;20030;-77
2022/05/04 04:01:22;;;;;;;19.88;11.57;;;22.70;47.20;;;;;;5031393;28;20099;-77
2022/05/04 04:03:48;;;;;;;18.65;11.60;;;22.70;47.40;;;;;;5031102;28;20428;-77
2022/05/04 04:06:14;;;;;;;20.40;11.45;;;22.70;47.30;;;;;;5031234;28;20030;-77
2022/05/04 04:08:42;;;;;;;20.25;12.23;;;22.70;47.40;;;;;;5029695;28;20049;-77
2022/05/04 04:11:08;;;;;;;18.70;11.15;;;22.70;47.30;;;;;;5031268;28;20034;-77
2022/05/04 04:13:34;;;;;;;17.88;10.48;;;22.70;47.40;;;;;;5031122;28;20585;-77
2022/05/04 04:15:59;;;;;;;18.40;10.95;;;22.70;47.30;;;;;;5030237;28;20094;-78
2022/05/04 04:18:26;;;;;;;18.48;10.95;;;22.70;47.60;;;;;;5030258;28;20135;-78
2022/05/04 04:23:38;;;;;;;18.75;10.95;;;22.70;47.50;;;;;;5030793;28;20397;-77
2022/05/04 04:26:05;;;;;;;17.20;11.13;;;22.70;47.60;;;;;;5029844;28;20120;-77
2022/05/04 04:28:31;;;;;;;18.25;10.82;;;22.70;47.70;;;;;;5031054;28;20513;-78
2022/05/04 04:30:57;;;;;;;21.27;12.27;;;22.70;47.80;;;;;;5031092;28;20036;-78
2022/05/04 04:33:26;;;;;;;20.35;10.93;;;22.70;47.70;;;;;;5013088;28;20021;-77
2022/05/04 04:35:55;;;;;;;17.83;10.95;;;22.70;47.70;;;;;;5031195;28;20079;-78
2022/05/04 04:38:21;;;;;;;17.73;10.25;;;22.70;47.70;;;;;;5013585;28;20555;-78
2022/05/04 04:40:47;;;;;;;17.20;10.52;;;22.70;47.90;;;;;;5029736;28;20109;-77
2022/05/04 04:43:14;;;;;;;16.88;10.48;;;22.70;47.60;;;;;;5029533;28;20026;-77
2022/05/04 04:45:40;;;;;;;19.65;11.25;;;22.70;47.70;;;;;;5030774;28;20506;-78
2022/05/04 04:48:06;;;;;;;18.05;10.55;;;22.70;47.90;;;;;;5013339;28;20026;-78
2022/05/04 04:50:32;;;;;;;18.27;10.52;;;22.70;48.20;;;;;;5030879;28;20021;-78
2022/05/04 04:52:57;;;;;;;20.33;11.27;;;22.70;47.60;;;;;;5012971;28;20025;-78
2022/05/04 04:55:23;;;;;;;18.38;10.57;;;22.70;47.90;;;;;;5029508;28;20116;-78
2022/05/04 04:57:49;;;;;;;17.70;10.55;;;22.70;47.70;;;;;;5030795;28;20068;-76
2022/05/04 05:00:15;;;;;;;17.83;10.05;;;22.70;47.80;;;;;;5030738;28;20116;-76
2022/05/04 05:02:41;;;;;;;17.92;10.80;;;22.70;47.70;;;;;;5030366;28;20030;-77
2022/05/04 05:05:07;;;;;;;17.17;10.05;;;22.70;47.80;;;;;;5030451;28;20033;-76
2022/05/04 05:07:33;;;;;;;16.17;10.25;;;22.70;47.70;;;;;;5029565;28;20034;-79
2022/05/04 05:09:59;;;;;;;17.52;10.38;;;22.70;47.90;;;;;;5029457;28;20036;-77
2022/05/04 05:12:24;;;;;;;15.43;9.65;;;22.70;47.80;;;;;;5013092;28;20037;-77
2022/05/04 05:17:35;;;;;;;17.38;9.63;;;22.70;47.90;;;;;;5029505;28;20038;-77
2022/05/04 05:20:03;;;;;;;17.98;10.63;;;22.70;47.80;;;;;;5031078;28;20068;-77
2022/05/04 05:22:30;;;;;;;16.80;10.00;;;22.70;47.70;;;;;;5032818;28;20064;-78
2022/05/04 05:24:56;;;;;;;16.52;9.82;;;22.70;48.00;;;;;;5034154;28;20034;-77
2022/05/04 05:27:24;;;;;;;17.27;10.23;;;22.80;48.10;;;;;;5034408;28;20121;-77
2022/05/04 05:29:50;;;;;;;17.25;9.57;;;22.70;48.00;;;;;;5033997;28;20022;-77
2022/05/04 05:32:16;;;;;;;18.00;9.45;;;22.70;48.00;;;;;;5032877;28;20477;-78
2022/05/04 05:34:42;;;;;;;15.88;9.25;;;22.70;48.00;;;;;;5032500;28;20390;-78
2022/05/04 05:37:08;;;;;;;16.13;9.18;;;22.70;48.00;;;;;;5032904;28;20105;-78
2022/05/04 05:39:34;;;;;;;16.27;10.27;;;22.70;48.00;;;;;;5032850;28;20029;-77
2022/05/04 05:41:59;;;;;;;16.35;10.13;;;22.70;48.10;;;;;;5016304;28;20083;-79
2022/05/04 05:44:25;;;;;;;15.43;9.43;;;22.70;48.00;;;;;;5015965;28;20041;-77
2022/05/04 05:46:51;;;;;;;18.00;10.77;;;22.70;48.10;;;;;;5032599;28;20033;-77
2022/05/04 05:49:17;;;;;;;14.77;9.15;;;22.70;48.00;;;;;;5016353;28;20022;-77
2022/05/04 05:51:42;;;;;;;17.65;9.60;;;22.70;48.10;;;;;;5033709;28;20028;-77
2022/05/04 05:54:08;;;;;;;16.95;9.25;;;22.70;48.00;;;;;;5032265;28;20111;-77
2022/05/04 05:56:34;;;;;;;16.23;9.50;;;22.70;48.10;;;;;;5032565;28;20044;-77
2022/05/04 05:59:00;;;;;;;16.23;9.23;;;22.70;48.00;;;;;;5016258;28;20083;-77
2022/05/04 06:01:26;;;;;;;15.55;8.88;;;22.70;48.00;;;;;;5033660;28;20118;-77
2022/05/04 06:03:52;;;;;;;14.73;8.52;;;22.70;48.00;;;;;;5033138;28;20033;-79
2022/05/04 06:06:18;;;;;;;17.05;9.90;;;22.70;48.00;;;;;;5032328;28;20397;-76
2022/05/04 06:08:44;;;;;;;15.35;9.32;;;22.70;48.00;;;;;;5015904;28;20026;-77
2022/05/04 06:11:10;;;;;;;14.52;8.85;;;22.70;48.10;;;;;;5032388;28;20032;-77
2022/05/04 06:13:35;;;;;;;14.95;9.10;;;22.70;48.10;;;;;;5028014;28;20033;-77
2022/05/04 06:16:01;;;;;;;15.10;8.43;;;22.70;48.10;;;;;;5033215;28;20084;-77
2022/05/04 06:18:27;;;;;;;14.90;8.77;;;22.80;48.10;;;;;;5033082;28;20029;-77
2022/05/04 06:20:53;;;;;;;13.65;7.90;;;22.80;48.30;;;;;;5033423;28;20529;-77
2022/05/04 06:23:19;;;;;;;15.40;9.07;;;22.80;48.10;;;;;;5031275;28;20044;-77
2022/05/04 06:25:45;;;;;;;17.13;8.65;;;22.70;48.20;;;;;;5033190;28;20432;-77
2022/05/04 06:28:12;;;;;;;16.55;9.10;;;22.80;48.20;;;;;;5015110;28;20508;-77
2022/05/04 06:36:07;;;;;;;14.95;9.00;;;22.80;48.40;;;;;;5032965;28;20033;-77
2022/05/04 06:38:32;;;;;;;14.93;8.90;;;22.80;48.30;;;;;;5032877;28;20055;-77
2022/05/04 06:41:00;;;;;;;15.75;9.07;;;22.80;48.40;;;;;;5015374;28;20029;-77
2022/05/04 06:43:25;;;;;;;17.17;9.65;;;22.80;48.40;;;;;;5031524;28;20080;-77
2022/05/04 06:45:51;;;;;;;15.15;8.85;;;22.80;48.40;;;;;;5032375;28;20049;-77
2022/05/04 06:48:17;;;;;;;14.93;8.63;;;22.80;48.40;;;;;;5031671;28;20044;-77
2022/05/04 06:50:43;;;;;;;14.98;8.80;;;22.80;48.50;;;;;;5014846;28;20036;-77
2022/05/04 06:53:08;;;;;;;16.85;8.85;;;22.80;48.50;;;;;;5032203;28;20032;-77
2022/05/04 06:55:34;;;;;;;15.15;8.57;;;22.80;48.40;;;;;;5031370;28;20113;-77
2022/05/04 06:58:00;;;;;;;16.67;8.88;;;22.80;48.50;;;;;;5032478;28;20079;-77
2022/05/04 07:00:26;;;;;;;14.38;9.07;;;22.80;48.50;;;;;;5032466;28;20125;-77
2022/05/04 07:02:51;;;;;;;14.30;8.43;;;22.80;48.60;;;;;;5032095;28;20489;-77
2022/05/04 07:05:17;;;;;;;14.45;8.57;;;22.80;48.50;;;;;;5032438;28;20026;-77
2022/05/04 07:07:43;;;;;;;16.45;8.50;;;22.80;48.40;;;;;;5032409;28;20032;-77
2022/05/04 07:10:09;;;;;;;13.30;8.10;;;22.80;48.60;;;;;;5031124;28;20510;-77
2022/05/04 07:12:35;;;;;;;13.65;7.93;;;22.80;48.50;;;;;;5032236;28;20033;-77
2022/05/04 07:15:00;;;;;;;13.82;8.15;;;22.70;48.40;;;;;;5030624;28;20022;-77
2022/05/04 07:17:26;;;;;;;16.48;8.68;;;22.70;48.30;;;;;;5032228;28;20079;-78
2022/05/04 07:19:53;;;;;;;14.57;8.65;;;22.70;48.30;;;;;;5030884;28;20036;-77
2022/05/04 07:22:19;;;;;;;15.27;9.13;;;22.80;48.40;;;;;;5014140;28;20060;-78
2022/05/04 07:24:45;;;;;;;13.48;8.00;;;22.80;48.40;;;;;;5014228;28;20057;-77
2022/05/04 07:27:11;;;;;;;13.70;8.13;;;22.80;48.30;;;;;;5014184;28;20080;-78
2022/05/04 07:29:37;;;;;;;17.33;8.85;;;22.80;48.40;;;;;;5014665;28;20029;-77
2022/05/04 07:32:03;;;;;;;13.82;8.02;;;22.80;48.40;;;;;;5031717;28;20109;-78
2022/05/04 07:34:30;;;;;;;15.32;8.45;;;22.80;48.50;;;;;;5022537;28;20029;-78
2022/05/04 07:36:58;;;;;;;13.57;7.47;;;22.80;48.50;;;;;;5029475;28;20034;-77
2022/05/04 07:42:26;;;;;;;16.45;8.10;;;22.80;48.60;;;;;;5030154;28;20033;-77
2022/05/04 07:45:04;;;;;;;14.55;7.75;;;22.90;48.80;;;;;;4996846;28;20394;-77
2022/05/04 07:47:33;;;;;;;14.45;8.38;;;22.90;48.80;;;;;;5030880;28;20195;-76
2022/05/04 07:49:59;;;;;;;16.23;8.55;;;22.90;49.00;;;;;;5029509;28;20060;-77
2022/05/04 07:52:26;;;;;;;14.50;8.07;;;22.90;49.10;;;;;;5030219;28;20029;-77
2022/05/04 07:54:52;;;;;;;15.18;7.75;;;22.90;49.10;;;;;;5029293;28;20390;-77
2022/05/04 07:57:17;;;;;;;12.38;7.30;;;23.00;49.30;;;;;;5013805;28;20375;-76
2022/05/04 08:04:16;;;;;;;13.48;7.43;;;23.00;49.30;;;;;;5030161;28;20032;-76
2022/05/04 08:05:14;;;;;;;12.93;7.40;;;23.00;49.50;;;;;;5029788;28;20021;-76
2022/05/04 08:07:39;;;;;;;13.73;7.28;;;23.00;49.50;;;;;;5029823;28;20032;-76
2022/05/04 08:10:05;;;;;;;13.82;7.80;;;23.00;49.50;;;;;;5008722;28;20037;-76
2022/05/04 08:12:33;;;;;;;13.02;7.18;;;23.00;49.60;;;;;;5030935;28;20034;-76
2022/05/04 08:14:59;;;;;;;12.07;7.00;;;23.00;49.60;;;;;;5029840;28;20026;-76
2022/05/04 08:17:25;;;;;;;13.35;7.78;;;23.00;49.60;;;;;;5028721;28;20104;-76
2022/05/04 08:19:51;;;;;;;13.23;7.38;;;23.00;49.60;;;;;;5029944;28;20033;-76
2022/05/04 08:22:17;;;;;;;15.13;7.93;;;23.10;49.70;;;;;;5031020;28;20033;-76
2022/05/04 08:24:43;;;;;;;12.23;7.28;;;23.10;49.60;;;;;;5029374;28;20524;-76
2022/05/04 08:27:09;;;;;;;13.05;7.60;;;23.10;49.60;;;;;;5029716;28;20402;-76
2022/05/04 08:29:37;;;;;;;14.60;7.72;;;23.10;49.70;;;;;;5013613;28;20091;-76
2022/05/04 08:32:07;;;;;;;13.45;7.70;;;23.10;50.80;;;;;;5029782;28;20029;-80
2022/05/04 08:34:33;;;;;;;16.08;7.78;;;23.10;51.40;;;;;;5029688;28;20029;-79
2022/05/04 08:36:58;;;;;;;21.70;8.05;;;23.10;50.90;;;;;;5030121;28;20030;-79
2022/05/04 08:39:24;;;;;;;15.10;5.80;;;23.00;50.60;;;;;;5029663;28;20022;-80
2022/05/04 08:41:51;;;;;;;15.05;5.55;;;23.00;47.00;;;;;;5013660;28;20571;-80
2022/05/04 08:44:18;;;;;;;18.02;10.75;;;22.80;45.50;;;;;;5013509;28;20525;-80
2022/05/04 08:46:44;;;;;;;18.70;10.55;;;22.70;46.40;;;;;;5030899;28;20068;-80
2022/05/04 08:49:12;;;;;;;25.95;18.10;;;22.70;46.90;;;;;;5029860;28;20041;-81
2022/05/04 08:51:40;;;;;;;21.42;11.70;;;22.70;46.50;;;;;;5029883;28;20575;-81
2022/05/04 08:54:07;;;;;;;29.60;10.98;;;22.70;45.10;;;;;;5029374;28;20048;-81
2022/05/04 08:56:34;;;;;;;15.15;7.22;;;22.70;44.30;;;;;;5017094;28;20402;-80
2022/05/04 08:59:04;;;;;;;15.68;7.40;;;22.60;42.20;;;;;;5035037;28;20049;-80
2022/05/04 09:01:36;;;;;;;12.65;5.72;;;22.60;43.80;;;;;;5033717;28;20041;-81
2022/05/04 09:04:02;;;;;;;11.23;5.47;;;22.60;42.70;;;;;;5033227;28;20029;-80
2022/05/04 09:06:29;;;;;;;12.32;5.15;;;22.50;42.60;;;;;;5033316;28;20035;-79
2022/05/04 09:09:10;;;;;;;12.32;5.20;;;22.50;42.60;;;;;;5017157;28;20041;-80
2022/05/04 09:11:42;;;;;;;11.43;4.85;;;22.50;42.30;;;;;;5033468;28;20029;-80
2022/05/04 09:14:20;;;;;;;10.02;5.03;;;22.40;42.50;;;;;;5016741;28;20502;-80
2022/05/04 09:16:47;;;;;;;8.88;4.57;;;22.50;43.00;;;;;;5033621;28;20109;-82
2022/05/04 09:19:15;;;;;;;14.00;4.70;;;22.50;42.30;;;;;;5034723;28;20029;-81
2022/05/04 09:21:41;;;;;;;8.68;4.03;;;22.40;42.50;;;;;;5035207;28;20044;-81
2022/05/04 09:24:08;;;;;;;10.82;4.43;;;22.40;42.60;;;;;;5018077;28;20497;-82
2022/05/04 09:26:44;;;;;;;7.75;4.30;;;22.40;41.70;;;;;;5017050;28;20040;-80
2022/05/04 09:29:14;;;;;;;7.25;4.10;;;22.40;42.00;;;;;;5033222;28;20030;-80
2022/05/04 09:31:47;;;;;;;14.15;4.57;;;22.40;41.80;;;;;;5034233;28;20104;-81
2022/05/04 09:34:13;;;;;;;12.23;4.57;;;22.30;41.50;;;;;;5033962;28;20026;-80
2022/05/04 09:45:05;;;;;;;9.02;4.78;;;22.40;41.60;;;;;;5033963;28;20296;-80
2022/05/04 09:47:36;;;;;;;8.02;4.25;;;22.40;40.50;;;;;;5033897;28;20082;-79
2022/05/04 09:50:03;;;;;;;10.23;3.97;;;22.40;40.60;;;;;;5034015;28;20079;-76
2022/05/04 09:52:41;;;;;;;6.63;3.53;;;22.40;40.80;;;;;;5032237;28;20018;-76
2022/05/04 09:55:14;;;;;;;12.70;3.28;;;22.50;41.60;;;;;;5032168;28;20021;-75
2022/05/04 09:57:43;;;;;;;5.28;3.10;;;22.50;41.70;;;;;;5033576;28;20025;-77
2022/05/04 10:00:09;;;;;;;6.25;2.75;;;22.50;41.80;;;;;;5033507;28;20115;-77
2022/05/04 10:02:37;;;;;;;6.22;2.63;;;22.50;41.90;;;;;;5032141;28;20052;-78
2022/05/04 10:05:04;;;;;;;8.52;2.65;;;22.60;42.00;;;;;;5031975;28;20029;-76
2022/05/04 10:07:31;;;;;;;4.03;2.28;;;22.60;42.20;;;;;;5031282;28;20026;-77
2022/05/04 10:09:57;;;;;;;6.95;2.78;;;22.60;42.40;;;;;;4999268;28;20450;-77
2022/05/04 10:12:23;;;;;;;4.18;2.60;;;22.60;42.50;;;;;;5032604;28;20160;-77
2022/05/04 10:14:51;;;;;;;5.05;2.50;;;22.60;42.60;;;;;;5031867;28;20025;-77
2022/05/04 10:17:22;;;;;;;3.60;2.50;;;22.70;42.80;;;;;;5032257;28;20034;-77
2022/05/04 10:20:09;;;;;;;4.57;2.40;;;22.60;42.80;;;;;;5033226;28;20374;-77
2022/05/04 10:22:40;;;;;;;5.32;2.50;;;22.70;42.90;;;;;;5033268;28;20449;-78
2022/05/04 10:25:07;;;;;;;5.55;2.38;;;22.70;43.00;;;;;;5032778;28;20382;-78
2022/05/04 10:27:41;;;;;;;6.20;2.35;;;22.70;43.00;;;;;;5031847;28;20033;-79
2022/05/04 10:32:57;;;;;;;8.07;2.63;;;22.70;43.10;;;;;;5033100;28;20064;-78
2022/05/04 10:35:43;;;;;;;8.23;2.90;;;22.70;43.00;;;;;;5032103;28;20037;-78
2022/05/04 10:38:13;;;;;;;9.35;3.03;;;22.70;43.90;;;;;;4999124;28;20478;-78
2022/05/04 10:41:00;;;;;;;13.85;3.75;;;22.80;44.60;;;;;;5015123;28;20029;-78
2022/05/04 10:43:43;;;;;;;10.27;3.05;;;22.90;44.70;;;;;;5031552;28;20091;-78
2022/05/04 10:46:18;;;;;;;11.25;3.53;;;22.90;44.30;;;;;;5032620;28;20041;-77
2022/05/04 10:49:13;;;;;;;10.90;3.45;;;23.00;45.20;;;;;;5031757;28;20112;-77
2022/05/04 10:51:42;;;;;;;6.70;3.30;;;23.00;46.60;;;;;;5030880;28;20117;-76
2022/05/04 10:54:21;;;;;;;7.75;3.40;;;23.00;45.60;;;;;;5032430;28;20025;-79
2022/05/04 10:56:49;;;;;;;10.52;3.50;;;23.00;45.80;;;;;;5031096;28;20033;-76
2022/05/04 10:59:26;;;;;;;12.60;3.63;;;23.00;46.60;;;;;;5031565;28;20037;-76
2022/05/04 11:01:56;;;;;;;8.13;3.47;;;23.00;46.70;;;;;;5031770;28;20044;-76
2022/05/04 11:04:22;;;;;;;;;;;23.00;46.70;;;;;;5014988;28;20033;-76
2022/05/04 11:06:58;;;;;;;12.10;3.83;;;23.00;46.70;;;;;;5032233;28;19913;-77
2022/05/04 11:09:31;;;;;;;10.48;3.70;;;23.00;46.60;;;;;;5031161;28;20034;-77
2022/05/04 11:12:02;;;;;;;7.05;3.17;;;23.00;46.50;;;;;;5032441;28;20025;-77
2022/05/04 11:14:29;;;;;;;7.30;3.20;;;23.00;46.50;;;;;;5031817;28;20095;-78
2022/05/04 11:16:57;;;;;;;9.20;3.20;;;23.00;46.50;;;;;;5014638;28;20337;-77
2022/05/04 11:19:25;;;;;;;11.07;3.28;;;23.00;46.50;;;;;;5031086;28;20029;-77
2022/05/04 11:21:51;;;;;;;10.00;3.22;;;22.90;46.50;;;;;;4998198;28;20512;-76
2022/05/04 11:24:17;;;;;;;6.85;3.20;;;23.00;46.60;;;;;;5030513;28;20037;-77
2022/05/04 11:26:45;;;;;;;7.07;2.88;;;23.00;46.60;;;;;;5030827;28;20025;-77
2022/05/04 11:29:14;;;;;;;8.73;3.22;;;23.00;46.60;;;;;;5014130;28;20498;-77
2022/05/04 11:31:48;;;;;;;6.13;3.30;;;23.00;46.60;;;;;;5014633;28;20036;-77
2022/05/04 11:34:15;;;;;;;11.13;3.33;;;23.00;46.80;;;;;;5013431;28;20684;-76
2022/05/04 11:36:47;;;;;;;9.63;3.75;;;23.00;46.70;;;;;;5014313;28;20052;-77
2022/05/04 11:39:20;;;;;;;8.25;3.30;;;23.00;46.80;;;;;;5030562;28;20052;-75
2022/05/04 11:41:47;;;;;;;6.32;2.83;;;23.00;46.80;;;;;;5032137;28;20033;-76
2022/05/04 11:44:14;;;;;;;21.70;4.05;;;22.90;46.90;;;;;;5014330;28;20033;-75
2022/05/04 11:46:42;;;;;;;9.38;3.30;;;22.90;47.10;;;;;;5032363;28;20041;-76
2022/05/04 11:49:08;;;;;;;8.50;3.15;;;23.00;47.10;;;;;;5030974;28;20029;-76
2022/05/04 11:51:37;;;;;;;10.52;3.33;;;23.00;47.00;;;;;;5015132;28;20026;-76
2022/05/04 11:54:04;;;;;;;8.15;3.35;;;23.00;47.20;;;;;;5013849;28;20494;-76
2022/05/04 11:56:30;;;;;;;6.75;3.28;;;23.00;47.10;;;;;;5014691;28;20037;-76
2022/05/04 11:58:56;;;;;;;7.97;3.33;;;23.00;47.10;;;;;;5030769;28;20033;-76
2022/05/04 12:01:24;;;;;;;5.90;3.30;;;23.00;47.10;;;;;;5030700;28;20032;-76
2022/05/04 12:03:50;;;;;;;7.80;3.53;;;23.00;47.10;;;;;;5030425;28;20087;-76
2022/05/04 12:06:17;;;;;;;8.00;3.05;;;23.00;47.20;;;;;;5014437;28;20036;-76
2022/05/04 12:08:43;;;;;;;8.00;3.08;;;23.00;47.20;;;;;;5014576;28;20030;-75
2022/05/04 12:11:10;;;;;;;10.68;3.30;;;23.00;47.30;;;;;;5013960;28;20029;-76
2022/05/04 12:13:37;;;;;;;7.22;3.42;;;23.00;47.40;;;;;;5014218;28;20029;-76
2022/05/04 12:16:04;;;;;;;8.02;3.45;;;23.00;47.30;;;;;;5031328;28;20025;-76
2022/05/04 12:18:33;;;;;;;9.48;3.08;;;23.00;47.40;;;;;;5030935;28;20056;-76
2022/05/04 12:21:10;;;;;;;7.47;2.97;;;23.00;47.40;;;;;;5014099;28;20437;-76
2022/05/04 12:23:41;;;;;;;7.25;3.33;;;23.00;47.50;;;;;;5013722;28;20776;-76
2022/05/04 12:26:15;;;;;;;6.43;2.90;;;23.00;47.50;;;;;;5030135;28;20026;-76
2022/05/04 12:34:23;;;;;;;5.35;2.67;;;23.00;47.80;;;;;;5029001;28;20040;-76
2022/05/04 12:36:50;;;;;;;8.73;3.10;;;23.00;47.70;;;;;;5013422;28;20025;-77
2022/05/04 12:39:16;;;;;;;13.07;3.70;;;23.00;47.70;;;;;;5030089;28;20045;-76
2022/05/04 12:41:45;;;;;;;9.57;3.60;;;23.00;48.60;;;;;;5013634;28;20390;-76
2022/05/04 12:44:14;;;;;;;13.15;3.90;;;23.00;48.20;;;;;;5031209;28;20092;-76
2022/05/04 12:46:40;;;;;;;8.35;3.88;;;23.00;48.10;;;;;;5013500;28;20038;-76
2022/05/04 12:49:06;;;;;;;8.50;3.58;;;23.10;48.30;;;;;;5029582;28;20079;-76
2022/05/04 12:51:32;;;;;;;7.03;3.65;;;23.10;48.30;;;;;;5013228;28;20041;-76
2022/05/04 12:53:58;;;;;;;8.82;3.80;;;23.10;48.30;;;;;;5029636;28;20120;-75
2022/05/04 12:59:18;;;;;;;9.95;3.83;;;23.10;48.30;;;;;;5029908;28;20036;-76
2022/05/04 13:01:45;;;;;;;8.82;3.92;;;23.10;48.30;;;;;;4995035;28;20367;-75
2022/05/04 13:04:13;;;;;;;12.77;3.40;;;23.10;48.30;;;;;;5012418;28;20030;-76
2022/05/04 13:06:56;;;;;;;9.68;3.42;;;23.10;48.30;;;;;;4999617;28;20048;-76
2022/05/04 13:09:36;;;;;;;6.40;3.30;;;23.10;48.30;;;;;;5014200;28;20022;-77
2022/05/04 13:12:11;;;;;;;13.25;3.70;;;23.00;48.20;;;;;;4997291;28;20637;-76
2022/05/04 13:14:38;;;;;;;11.40;3.55;;;23.00;48.30;;;;;;5029479;28;20107;-75
2022/05/04 13:17:05;;;;;;;10.77;3.42;;;23.10;48.40;;;;;;5013102;28;20034;-76
2022/05/04 13:19:31;;;;;;;12.02;3.10;;;23.00;48.50;;;;;;5029636;28;20029;-76